createdAt,value
2022-07-26T00:00:15.033Z,2.90
2022-07-26T00:02:47.282Z,8.27
2022-07-26T00:05:18.073Z,3.60
2022-07-26T00:07:46.134Z,6.93
2022-07-26T00:10:14.414Z,4.53
2022-07-26T00:12:41.851Z,7.23
2022-07-26T00:15:10.820Z,3.50
2022-07-26T00:17:38.585Z,3.40
2022-07-26T00:20:06.153Z,4.90
2022-07-26T00:22:36.153Z,5.00
2022-07-26T00:25:09.039Z,2.70
2022-07-26T00:27:39.465Z,5.30
2022-07-26T00:30:08.565Z,9.73
2022-07-26T00:32:35.915Z,6.50
2022-07-26T00:35:02.841Z,4.63
2022-07-26T00:37:29.815Z,5.53
2022-07-26T00:39:56.757Z,3.50
2022-07-26T00:42:24.067Z,4.40
2022-07-26T00:44:50.931Z,1.97
2022-07-26T00:47:18.048Z,4.87
2022-07-26T00:49:45.019Z,4.40
2022-07-26T00:52:12.714Z,3.93
2022-07-26T00:54:44.029Z,4.43
2022-07-26T00:57:11.070Z,4.10
2022-07-26T00:59:38.177Z,3.70
2022-07-26T01:02:06.178Z,2.90
2022-07-26T01:04:33.535Z,4.73
2022-07-26T01:07:01.698Z,7.70
2022-07-26T01:09:28.621Z,4.13
2022-07-26T01:11:55.491Z,6.43
2022-07-26T01:14:23.360Z,3.40
2022-07-26T01:16:51.182Z,10.10
2022-07-26T01:19:18.919Z,2.17
2022-07-26T01:21:46.356Z,2.60
2022-07-26T01:24:13.462Z,8.07
2022-07-26T01:26:40.324Z,3.50
2022-07-26T01:29:07.418Z,6.37
2022-07-26T01:31:34.644Z,4.63
2022-07-26T01:34:01.738Z,4.50
2022-07-26T01:36:28.690Z,2.97
2022-07-26T01:38:55.628Z,2.63
2022-07-26T01:41:37.492Z,3.03
2022-07-26T01:44:06.528Z,3.83
2022-07-26T01:46:34.597Z,5.20
2022-07-26T01:49:02.098Z,3.67
2022-07-26T01:51:29.223Z,4.63
2022-07-26T01:53:56.328Z,3.27
2022-07-26T01:56:23.217Z,6.27
2022-07-26T01:58:50.547Z,5.47
2022-07-26T02:01:38.697Z,1.73
2022-07-26T02:04:04.868Z,1.40
2022-07-26T02:06:31.909Z,4.20
2022-07-26T02:09:00.944Z,4.03
2022-07-26T02:11:29.055Z,5.90
2022-07-26T02:13:55.930Z,2.60
2022-07-26T02:16:22.985Z,4.10
2022-07-26T02:18:49.949Z,3.00
2022-07-26T02:21:16.854Z,2.07
2022-07-26T02:23:43.782Z,5.57
2022-07-26T02:26:10.711Z,3.80
2022-07-26T02:28:37.640Z,4.20
2022-07-26T02:31:04.727Z,3.17
2022-07-26T02:33:31.805Z,5.70
2022-07-26T02:35:58.650Z,3.77
2022-07-26T02:38:25.549Z,3.63
2022-07-26T02:40:53.004Z,7.53
2022-07-26T02:43:20.181Z,5.03
2022-07-26T02:46:01.138Z,3.73
2022-07-26T02:48:30.436Z,2.90
2022-07-26T02:50:57.398Z,4.13
2022-07-26T02:53:24.271Z,3.50
2022-07-26T02:55:51.365Z,6.03
2022-07-26T02:58:20.127Z,4.43
2022-07-26T03:00:47.025Z,2.80
2022-07-26T03:03:14.498Z,4.17
2022-07-26T03:05:41.791Z,2.57
2022-07-26T03:08:08.877Z,3.77
2022-07-26T03:10:35.739Z,3.83
2022-07-26T03:13:02.662Z,3.60
2022-07-26T03:15:29.662Z,3.43
2022-07-26T03:17:56.774Z,1.90
2022-07-26T03:20:23.677Z,3.47
2022-07-26T03:22:50.565Z,2.70
2022-07-26T03:25:17.510Z,1.50
2022-07-26T03:27:44.602Z,3.63
2022-07-26T03:30:12.358Z,4.67
2022-07-26T03:32:39.256Z,5.57
2022-07-26T03:35:07.388Z,2.13
2022-07-26T03:37:46.296Z,1.50
2022-07-26T03:40:17.285Z,3.43
2022-07-26T03:42:48.312Z,3.13
2022-07-26T03:45:16.292Z,4.23
2022-07-26T03:47:43.910Z,2.70
2022-07-26T03:50:11.411Z,3.43
2022-07-26T03:52:38.588Z,4.67
2022-07-26T03:55:26.806Z,3.27
2022-07-26T03:57:53.852Z,4.43
2022-07-26T04:00:20.899Z,3.40
2022-07-26T04:02:47.919Z,5.00
2022-07-26T04:05:14.908Z,4.63
2022-07-26T04:07:52.833Z,4.13
2022-07-26T04:10:21.557Z,1.87
2022-07-26T04:12:48.804Z,1.93
2022-07-26T04:15:17.340Z,2.87
2022-07-26T04:17:44.254Z,0.93
2022-07-26T04:20:12.082Z,2.73
2022-07-26T04:22:40.305Z,2.30
2022-07-26T04:25:08.972Z,4.67
2022-07-26T04:27:36.460Z,3.17
2022-07-26T04:30:04.175Z,1.67
2022-07-26T04:32:31.082Z,3.37
2022-07-26T04:34:57.930Z,2.67
2022-07-26T04:37:24.945Z,3.30
2022-07-26T04:39:54.916Z,2.93
2022-07-26T04:42:22.167Z,2.50
2022-07-26T04:44:49.094Z,1.90
2022-07-26T04:47:15.980Z,4.77
2022-07-26T04:49:42.978Z,1.67
2022-07-26T04:52:09.841Z,1.67
2022-07-26T04:54:36.778Z,2.93
2022-07-26T04:57:03.824Z,1.43
2022-07-26T04:59:32.533Z,1.57
2022-07-26T05:02:00.111Z,3.87
2022-07-26T05:04:27.562Z,2.57
2022-07-26T05:06:54.461Z,3.47
2022-07-26T05:09:21.442Z,2.47
2022-07-26T05:11:48.352Z,2.50
2022-07-26T05:14:15.246Z,3.63
2022-07-26T05:16:44.359Z,1.80
2022-07-26T05:19:13.772Z,1.93
2022-07-26T05:21:41.119Z,2.80
2022-07-26T05:24:08.575Z,2.73
2022-07-26T05:26:35.746Z,22.47
2022-07-26T05:29:02.841Z,13.60
2022-07-26T05:31:29.855Z,4.90
2022-07-26T05:33:56.841Z,4.10
2022-07-26T05:36:23.708Z,2.77
2022-07-26T05:38:50.615Z,2.10
2022-07-26T05:41:18.908Z,3.37
2022-07-26T05:43:45.945Z,2.23
2022-07-26T05:46:12.917Z,2.57
2022-07-26T05:48:42.783Z,3.27
2022-07-26T05:51:10.866Z,3.97
2022-07-26T05:53:38.057Z,3.17
2022-07-26T05:56:05.550Z,4.50
2022-07-26T05:58:32.855Z,2.07
2022-07-26T06:01:00.289Z,3.60
2022-07-26T06:03:27.917Z,1.97
2022-07-26T06:05:57.225Z,3.00
2022-07-26T06:08:26.330Z,2.50
2022-07-26T06:10:54.047Z,2.40
2022-07-26T06:13:21.122Z,3.53
2022-07-26T06:15:48.474Z,4.00
2022-07-26T06:18:16.598Z,3.40
2022-07-26T06:20:46.371Z,2.63
2022-07-26T06:23:13.840Z,6.87
2022-07-26T06:25:40.834Z,1.47
2022-07-26T06:28:09.511Z,2.63
2022-07-26T06:30:37.914Z,3.40
2022-07-26T06:33:05.666Z,6.27
2022-07-26T06:35:34.366Z,10.63
2022-07-26T06:38:01.390Z,5.40
2022-07-26T06:40:28.385Z,2.40
2022-07-26T06:42:55.274Z,4.63
2022-07-26T06:45:22.247Z,4.50
2022-07-26T06:47:49.160Z,5.33
2022-07-26T06:50:16.148Z,4.53
2022-07-26T06:52:47.738Z,4.90
2022-07-26T06:55:14.937Z,5.10
2022-07-26T06:57:49.652Z,2.70
2022-07-26T07:00:18.170Z,3.03
2022-07-26T07:02:45.343Z,4.40
2022-07-26T07:05:12.506Z,5.10
2022-07-26T07:07:42.186Z,8.10
2022-07-26T07:10:10.287Z,2.47
2022-07-26T07:12:40.296Z,1.43
2022-07-26T07:15:07.595Z,2.17
2022-07-26T07:17:35.182Z,2.83
2022-07-26T07:20:03.956Z,7.33
2022-07-26T07:22:30.997Z,3.50
2022-07-26T07:24:57.968Z,3.27
2022-07-26T07:27:25.248Z,2.03
2022-07-26T07:29:54.251Z,3.83
2022-07-26T07:32:24.788Z,3.93
2022-07-26T07:34:53.455Z,3.97
2022-07-26T07:37:20.641Z,3.33
2022-07-26T07:39:50.101Z,2.57
2022-07-26T07:42:17.565Z,3.57
2022-07-26T07:44:44.427Z,5.10
2022-07-26T07:47:11.545Z,2.73
2022-07-26T07:49:38.445Z,5.83
2022-07-26T07:52:06.299Z,2.67
2022-07-26T07:54:34.236Z,4.80
2022-07-26T07:57:01.760Z,3.83
2022-07-26T07:59:29.482Z,1.87
2022-07-26T08:01:56.952Z,1.87
2022-07-26T08:04:24.437Z,5.93
2022-07-26T08:06:52.061Z,4.73
2022-07-26T08:09:20.383Z,3.07
2022-07-26T08:11:50.676Z,2.57
2022-07-26T08:14:19.266Z,2.47
2022-07-26T08:16:46.581Z,5.10
2022-07-26T08:19:14.366Z,2.77
2022-07-26T08:21:43.154Z,9.07
2022-07-26T08:24:11.057Z,4.40
2022-07-26T08:26:38.414Z,6.27
2022-07-26T08:29:05.503Z,5.00
2022-07-26T08:31:32.456Z,5.87
2022-07-26T08:33:59.621Z,8.57
2022-07-26T08:36:32.165Z,12.33
2022-07-26T08:39:00.784Z,62.30
2022-07-26T08:41:27.852Z,56.70
2022-07-26T08:43:54.900Z,59.10
2022-07-26T08:46:25.748Z,32.33
2022-07-26T08:48:53.779Z,60.40
2022-07-26T08:51:23.009Z,46.10
2022-07-26T08:53:51.609Z,32.27
2022-07-26T08:56:18.518Z,15.77
2022-07-26T08:58:45.826Z,30.53
2022-07-26T09:01:13.438Z,7.63
2022-07-26T09:03:42.111Z,1.80
2022-07-26T09:06:21.043Z,4.17
2022-07-26T09:08:53.302Z,3.23
2022-07-26T09:11:33.406Z,4.50
2022-07-26T09:14:02.711Z,2.37
2022-07-26T09:16:30.337Z,2.73
2022-07-26T09:19:19.331Z,2.73
2022-07-26T09:21:46.849Z,2.23
2022-07-26T09:24:14.465Z,1.93
2022-07-26T09:26:41.605Z,1.60
2022-07-26T09:29:10.950Z,1.90
2022-07-26T09:31:39.731Z,1.10
2022-07-26T09:34:07.929Z,2.63
2022-07-26T09:36:51.543Z,2.17
2022-07-26T09:39:27.790Z,4.73
2022-07-26T09:42:27.611Z,4.90
2022-07-26T09:44:57.194Z,1.07
2022-07-26T09:47:36.894Z,1.90
2022-07-26T09:50:20.144Z,4.33
2022-07-26T09:53:13.991Z,1.23
2022-07-26T09:55:48.293Z,3.60
2022-07-26T09:58:17.562Z,1.43
2022-07-26T10:00:44.611Z,2.27
2022-07-26T10:03:12.585Z,7.63
2022-07-26T10:05:41.136Z,3.33
2022-07-26T10:08:08.423Z,0.80
2022-07-26T10:10:48.280Z,101.57
2022-07-26T10:13:15.980Z,73.10
2022-07-26T10:15:50.512Z,37.47
2022-07-26T10:18:40.598Z,48.50
2022-07-26T10:21:27.225Z,30.50
2022-07-26T10:24:03.190Z,56.93
2022-07-26T10:26:33.170Z,62.63
2022-07-26T10:29:18.369Z,101.17
2022-07-26T10:31:48.957Z,121.13
2022-07-26T10:34:38.325Z,83.27
2022-07-26T10:37:10.836Z,99.67
2022-07-26T10:39:38.476Z,93.17
2022-07-26T10:42:09.713Z,60.13
2022-07-26T10:44:45.440Z,21.03
2022-07-26T10:47:16.058Z,14.40
2022-07-26T10:49:56.012Z,12.07
2022-07-26T10:52:27.190Z,13.70
2022-07-26T10:54:56.914Z,19.00
2022-07-26T10:57:40.986Z,22.37
2022-07-26T11:00:19.777Z,9.27
2022-07-26T11:02:53.962Z,6.33
2022-07-26T11:05:22.671Z,13.10
2022-07-26T11:07:56.653Z,2.80
2022-07-26T11:10:30.444Z,10.77
2022-07-26T11:13:14.799Z,10.93
2022-07-26T11:15:49.945Z,7.07
2022-07-26T11:18:19.827Z,8.77
2022-07-26T11:20:49.952Z,9.63
2022-07-26T11:23:33.785Z,5.00
2022-07-26T11:26:11.571Z,4.57
2022-07-26T11:29:00.916Z,1.80
2022-07-26T11:31:50.556Z,6.30
2022-07-26T11:34:28.715Z,3.67
2022-07-26T11:36:57.986Z,2.70
2022-07-26T11:39:26.731Z,4.60
2022-07-26T11:41:58.609Z,5.63
2022-07-26T11:44:25.685Z,5.60
2022-07-26T11:46:52.711Z,10.43
2022-07-26T11:49:52.482Z,12.97
2022-07-26T11:52:13.310Z,5.00
2022-07-26T11:54:51.725Z,4.03
2022-07-26T11:57:21.067Z,3.07
2022-07-26T11:59:48.943Z,1.50
2022-07-26T12:02:16.026Z,2.97
2022-07-26T12:04:44.121Z,1.00
2022-07-26T12:07:17.232Z,1.43
2022-07-26T12:09:53.436Z,8.10
2022-07-26T12:12:28.016Z,6.63
2022-07-26T12:15:07.457Z,4.00
2022-07-26T12:17:35.759Z,2.43
2022-07-26T12:20:17.654Z,1.33
2022-07-26T12:22:55.759Z,2.30
2022-07-26T12:25:29.785Z,2.63
2022-07-26T12:27:57.124Z,3.60
2022-07-26T12:30:30.699Z,2.57
2022-07-26T12:33:02.819Z,2.83
2022-07-26T12:35:36.022Z,1.30
2022-07-26T12:38:04.115Z,3.07
2022-07-26T12:40:41.291Z,3.03
2022-07-26T12:43:10.085Z,2.63
2022-07-26T12:45:38.798Z,4.17
2022-07-26T12:48:11.622Z,3.20
2022-07-26T12:50:39.963Z,5.90
2022-07-26T12:53:09.346Z,3.67
2022-07-26T12:55:40.253Z,2.93
2022-07-26T12:58:07.775Z,1.97
2022-07-26T13:00:36.231Z,5.17
2022-07-26T13:03:03.196Z,3.93
2022-07-26T13:05:32.007Z,2.87
2022-07-26T13:07:58.981Z,2.30
2022-07-26T13:10:35.088Z,9.60
2022-07-26T13:13:02.821Z,4.57
2022-07-26T13:15:35.304Z,4.67
2022-07-26T13:18:08.690Z,5.57
2022-07-26T13:20:39.198Z,5.23
2022-07-26T13:23:12.755Z,7.73
2022-07-26T13:25:43.384Z,5.90
2022-07-26T13:28:10.438Z,17.73
2022-07-26T13:30:38.937Z,12.47
2022-07-26T13:33:05.844Z,4.10
2022-07-26T13:35:32.726Z,10.13
2022-07-26T13:37:59.666Z,4.67
2022-07-26T13:40:31.862Z,4.03
2022-07-26T13:43:00.308Z,12.27
2022-07-26T13:45:29.010Z,16.40
2022-07-26T13:47:56.381Z,13.77
2022-07-26T13:50:23.373Z,6.73
2022-07-26T13:52:50.277Z,9.80
2022-07-26T13:55:17.249Z,7.27
2022-07-26T13:57:55.554Z,14.23
2022-07-26T14:00:31.588Z,6.47
2022-07-26T14:02:59.321Z,8.47
2022-07-26T14:05:28.285Z,7.73
2022-07-26T14:07:56.180Z,5.93
2022-07-26T14:10:24.513Z,5.20
2022-07-26T14:12:52.688Z,9.47
2022-07-26T14:15:23.104Z,19.70
2022-07-26T14:17:54.512Z,20.50
2022-07-26T14:20:23.187Z,21.87
2022-07-26T14:23:02.548Z,28.23
2022-07-26T14:25:32.041Z,48.90
2022-07-26T14:28:01.000Z,28.87
2022-07-26T14:30:28.237Z,18.50
2022-07-26T14:32:55.650Z,9.63
2022-07-26T14:35:23.163Z,8.67
2022-07-26T14:37:51.580Z,9.10
2022-07-26T14:40:19.671Z,7.47
2022-07-26T14:42:48.620Z,9.87
2022-07-26T14:45:15.701Z,12.53
2022-07-26T14:47:43.527Z,8.47
2022-07-26T14:50:11.730Z,10.30
2022-07-26T14:52:44.702Z,22.17
2022-07-26T14:55:12.226Z,20.67
2022-07-26T14:57:40.259Z,28.37
2022-07-26T15:00:10.314Z,26.33
2022-07-26T15:02:41.509Z,783.17
2022-07-26T15:05:16.005Z,1999.90
2022-07-26T15:07:43.029Z,1999.90
2022-07-26T15:10:11.598Z,1483.43
2022-07-26T15:12:38.968Z,480.03
2022-07-26T15:15:07.328Z,263.47
2022-07-26T15:17:35.008Z,137.33
2022-07-26T15:20:02.159Z,84.97
2022-07-26T15:22:29.024Z,58.60
2022-07-26T15:24:56.129Z,66.83
2022-07-26T15:27:23.850Z,58.60
2022-07-26T15:29:51.530Z,40.43
2022-07-26T15:32:20.737Z,37.43
2022-07-26T15:34:47.726Z,180.00
2022-07-26T15:37:14.694Z,909.57
2022-07-26T15:39:41.807Z,249.73
2022-07-26T15:42:09.246Z,140.97
2022-07-26T15:44:38.827Z,108.27
2022-07-26T15:47:05.908Z,40.50
2022-07-26T15:49:33.225Z,41.90
2022-07-26T15:52:01.273Z,30.23
2022-07-26T15:54:28.189Z,19.30
2022-07-26T15:56:55.232Z,24.83
2022-07-26T15:59:22.359Z,21.90
2022-07-26T16:01:49.386Z,25.83
2022-07-26T16:04:16.529Z,861.53
2022-07-26T16:06:43.490Z,1883.90
2022-07-26T16:09:17.417Z,1356.20
2022-07-26T16:11:45.623Z,1199.23
2022-07-26T16:14:12.589Z,797.53
2022-07-26T16:16:39.565Z,1268.97
2022-07-26T16:19:06.494Z,719.60
2022-07-26T16:21:33.435Z,405.83
2022-07-26T16:24:06.075Z,177.27
2022-07-26T16:26:34.463Z,105.00
2022-07-26T16:29:01.831Z,82.63
2022-07-26T16:31:28.811Z,92.20
2022-07-26T16:33:55.743Z,55.13
2022-07-26T16:36:22.662Z,103.23
2022-07-26T16:38:49.570Z,47.73
2022-07-26T16:41:16.728Z,72.00
2022-07-26T16:43:43.734Z,49.20
2022-07-26T16:46:10.665Z,33.73
2022-07-26T16:48:37.863Z,45.40
2022-07-26T16:51:05.405Z,41.10
2022-07-26T16:53:32.520Z,31.27
2022-07-26T16:55:59.940Z,36.33
2022-07-26T16:58:26.976Z,20.43
2022-07-26T17:00:54.279Z,14.30
2022-07-26T17:03:21.293Z,14.10
2022-07-26T17:05:48.206Z,7.47
2022-07-26T17:08:15.336Z,5.13
2022-07-26T17:10:42.811Z,12.73
2022-07-26T17:13:09.814Z,18.70
2022-07-26T17:15:36.792Z,8.77
2022-07-26T17:18:04.111Z,6.50
2022-07-26T17:20:31.741Z,15.43
2022-07-26T17:22:59.031Z,5.93
2022-07-26T17:25:41.332Z,12.10
2022-07-26T17:28:08.399Z,14.10
2022-07-26T17:30:35.304Z,4.80
2022-07-26T17:33:02.694Z,8.50
2022-07-26T17:35:29.835Z,4.60
2022-07-26T17:37:57.030Z,2.43
2022-07-26T17:40:25.645Z,6.03
2022-07-26T17:42:52.880Z,2.40
2022-07-26T17:45:19.742Z,6.40
2022-07-26T17:47:47.333Z,35.20
2022-07-26T17:50:35.270Z,161.83
2022-07-26T17:53:01.109Z,40.70
2022-07-26T17:55:28.449Z,23.57
2022-07-26T17:57:55.564Z,16.03
2022-07-26T18:00:23.380Z,13.90
2022-07-26T18:02:56.068Z,8.20
2022-07-26T18:05:27.274Z,5.87
2022-07-26T18:07:59.874Z,5.17
2022-07-26T18:10:27.807Z,5.10
2022-07-26T18:12:55.237Z,8.83
2022-07-26T18:15:22.228Z,4.77
2022-07-26T18:17:49.065Z,4.70
2022-07-26T18:20:16.046Z,4.43
2022-07-26T18:22:42.930Z,4.07
2022-07-26T18:25:14.147Z,5.53
2022-07-26T18:27:41.074Z,10.53
2022-07-26T18:30:08.442Z,5.80
2022-07-26T18:32:35.416Z,10.30
2022-07-26T18:35:02.479Z,4.20
2022-07-26T18:37:29.989Z,4.03
2022-07-26T18:39:58.113Z,12.73
2022-07-26T18:42:26.026Z,5.37
2022-07-26T18:44:53.039Z,5.80
2022-07-26T18:47:19.906Z,5.27
2022-07-26T18:49:46.749Z,6.87
2022-07-26T18:52:14.725Z,3.13
2022-07-26T18:54:41.725Z,7.97
2022-07-26T18:57:09.065Z,4.80
2022-07-26T18:59:36.148Z,5.03
2022-07-26T19:02:03.950Z,1.80
2022-07-26T19:04:30.933Z,4.30
2022-07-26T19:06:57.842Z,7.93
2022-07-26T19:09:24.736Z,18.00
2022-07-26T19:11:51.716Z,12.23
2022-07-26T19:14:18.858Z,6.67
2022-07-26T19:16:45.792Z,11.40
2022-07-26T19:19:13.021Z,13.90
2022-07-26T19:21:45.022Z,3.27
2022-07-26T19:24:11.925Z,1.40
2022-07-26T19:26:39.001Z,3.63
2022-07-26T19:29:05.886Z,3.27
2022-07-26T19:31:33.049Z,1.63
2022-07-26T19:33:59.938Z,1.47
2022-07-26T19:36:26.792Z,1.40
2022-07-26T19:38:55.922Z,5.20
2022-07-26T19:41:22.943Z,3.00
2022-07-26T19:43:49.802Z,4.57
2022-07-26T19:46:16.787Z,2.77
2022-07-26T19:48:43.757Z,2.57
2022-07-26T19:51:10.789Z,3.33
2022-07-26T19:53:37.707Z,3.87
2022-07-26T19:56:04.927Z,1.07
2022-07-26T19:58:31.824Z,1.30
2022-07-26T20:00:58.724Z,2.57
2022-07-26T20:03:25.653Z,7.83
2022-07-26T20:05:53.880Z,3.73
2022-07-26T20:08:21.217Z,9.10
2022-07-26T20:10:48.106Z,7.33
2022-07-26T20:13:15.105Z,4.33
2022-07-26T20:15:42.137Z,1.97
2022-07-26T20:18:10.583Z,3.53
2022-07-26T20:20:37.657Z,1.63
2022-07-26T20:23:06.240Z,1.90
2022-07-26T20:25:33.766Z,7.07
2022-07-26T20:28:00.835Z,7.13
2022-07-26T20:30:28.003Z,7.73
2022-07-26T20:32:55.093Z,2.30
2022-07-26T20:35:21.996Z,2.73
2022-07-26T20:37:48.977Z,1.97
2022-07-26T20:40:18.026Z,1.23
2022-07-26T20:42:45.480Z,3.17
2022-07-26T20:45:15.310Z,8.63
2022-07-26T20:47:43.204Z,1.87
2022-07-26T20:50:11.630Z,5.87
2022-07-26T20:52:39.234Z,4.70
2022-07-26T20:55:06.841Z,4.83
2022-07-26T20:57:33.801Z,2.87
2022-07-26T21:00:00.916Z,5.70
2022-07-26T21:02:28.143Z,4.57
2022-07-26T21:04:55.409Z,4.63
2022-07-26T21:07:22.548Z,3.63
2022-07-26T21:09:49.469Z,5.77
2022-07-26T21:12:16.416Z,1.73
2022-07-26T21:14:43.268Z,4.50
2022-07-26T21:17:12.123Z,4.87
2022-07-26T21:19:40.310Z,4.10
2022-07-26T21:22:07.746Z,1.87
2022-07-26T21:24:35.377Z,1.87
2022-07-26T21:27:03.893Z,1.13
2022-07-26T21:29:31.134Z,4.13
2022-07-26T21:31:58.188Z,2.90
2022-07-26T21:34:25.731Z,2.40
2022-07-26T21:36:53.809Z,3.87
2022-07-26T21:39:21.113Z,3.33
2022-07-26T21:41:48.951Z,4.77
2022-07-26T21:44:15.838Z,4.30
2022-07-26T21:46:42.782Z,3.20
2022-07-26T21:49:10.209Z,4.43
2022-07-26T21:51:37.640Z,8.47
2022-07-26T21:54:08.016Z,1.50
2022-07-26T21:56:35.857Z,3.77
2022-07-26T21:59:02.739Z,3.00
2022-07-26T22:01:29.770Z,4.37
2022-07-26T22:03:56.808Z,2.33
2022-07-26T22:06:23.772Z,1.77
2022-07-26T22:08:50.702Z,2.43
2022-07-26T22:11:17.603Z,3.30
2022-07-26T22:13:45.168Z,1.53
2022-07-26T22:16:12.355Z,1.63
2022-07-26T22:18:39.341Z,2.83
2022-07-26T22:21:06.241Z,2.03
2022-07-26T22:23:33.637Z,2.30
2022-07-26T22:26:02.469Z,2.87
2022-07-26T22:28:30.300Z,1.93
2022-07-26T22:30:57.488Z,1.40
2022-07-26T22:33:24.574Z,5.13
2022-07-26T22:35:52.117Z,1.57
2022-07-26T22:38:19.243Z,3.00
2022-07-26T22:40:46.134Z,4.97
2022-07-26T22:43:13.325Z,3.70
2022-07-26T22:45:40.646Z,3.50
2022-07-26T22:48:09.450Z,1.83
2022-07-26T22:50:36.393Z,1.90
2022-07-26T22:53:03.788Z,4.97
2022-07-26T22:55:30.932Z,3.60
2022-07-26T22:57:58.112Z,2.20
2022-07-26T23:00:25.341Z,1.30
2022-07-26T23:02:52.366Z,3.50
2022-07-26T23:05:19.578Z,3.93
2022-07-26T23:07:47.938Z,3.23
2022-07-26T23:10:15.478Z,3.90
2022-07-26T23:12:42.472Z,1.33
2022-07-26T23:15:10.088Z,3.30
2022-07-26T23:17:37.634Z,4.27
2022-07-26T23:20:06.033Z,1.77
2022-07-26T23:22:32.953Z,3.03
2022-07-26T23:24:59.868Z,2.60
2022-07-26T23:27:26.729Z,1.50
2022-07-26T23:29:53.697Z,3.03
2022-07-26T23:32:20.641Z,2.50
2022-07-26T23:34:47.548Z,1.87
2022-07-26T23:37:14.500Z,1.80
2022-07-26T23:39:41.470Z,1.33
2022-07-26T23:42:08.491Z,1.47
2022-07-26T23:44:35.425Z,2.63
2022-07-26T23:47:02.375Z,5.27
2022-07-26T23:49:29.737Z,7.53
2022-07-26T23:51:56.727Z,1.53
2022-07-26T23:54:23.622Z,3.23
2022-07-26T23:56:50.596Z,3.80
2022-07-26T23:59:17.645Z,2.50
